createdAt,value
2022-09-20T00:00:02.948Z,86
2022-09-20T00:03:03.102Z,87.6
2022-09-20T00:06:02.960Z,87.6
2022-09-20T00:09:02.949Z,87.6
2022-09-20T00:12:02.913Z,87.6
2022-09-20T00:15:02.922Z,87.6
2022-09-20T00:18:02.943Z,87.6
2022-09-20T00:21:03.044Z,87.6
2022-09-20T00:24:02.883Z,87.6
2022-09-20T00:27:02.981Z,87.6
2022-09-20T00:30:02.936Z,87.6
2022-09-20T00:33:02.896Z,87.6
2022-09-20T00:36:02.922Z,87.6
2022-09-20T00:39:02.901Z,87.6
2022-09-20T00:42:02.929Z,87.6
2022-09-20T00:45:02.931Z,87.6
2022-09-20T00:48:02.909Z,87.6
2022-09-20T00:51:02.873Z,88.2
2022-09-20T00:54:02.945Z,88.2
2022-09-20T00:57:02.880Z,88.2
2022-09-20T01:00:02.922Z,88.2
2022-09-20T01:03:02.876Z,88.5
2022-09-20T01:06:02.921Z,88.5
2022-09-20T01:09:02.974Z,88.5
2022-09-20T01:12:02.999Z,88.5
2022-09-20T01:15:02.886Z,88.5
2022-09-20T01:18:02.908Z,88.5
2022-09-20T01:21:02.894Z,88.5
2022-09-20T01:24:02.894Z,88.5
2022-09-20T01:27:02.867Z,88.5
2022-09-20T01:30:02.985Z,88.5
2022-09-20T01:33:02.920Z,88.5
2022-09-20T01:36:02.873Z,88.5
2022-09-20T01:39:03.028Z,88.5
2022-09-20T01:42:03.045Z,88.5
2022-09-20T01:45:03.005Z,88.5
2022-09-20T01:48:03.068Z,88.5
2022-09-20T01:51:02.928Z,88.5
2022-09-20T01:54:02.966Z,88.5
2022-09-20T01:57:02.906Z,88.5
2022-09-20T02:00:03.097Z,88.5
2022-09-20T02:03:02.951Z,90
2022-09-20T02:06:02.970Z,90
2022-09-20T02:09:02.967Z,90
2022-09-20T02:12:02.947Z,90
2022-09-20T02:15:02.912Z,90
2022-09-20T02:18:02.990Z,90.3
2022-09-20T02:21:02.907Z,90.3
2022-09-20T02:24:02.979Z,90.3
2022-09-20T02:27:02.937Z,90.3
2022-09-20T02:30:02.956Z,90.3
2022-09-20T02:33:02.996Z,90.3
2022-09-20T02:36:02.970Z,90.3
2022-09-20T02:39:02.935Z,90.3
2022-09-20T02:42:02.921Z,90.3
2022-09-20T02:45:02.978Z,90.3
2022-09-20T02:48:03.076Z,90.3
2022-09-20T02:51:02.896Z,90.3
2022-09-20T02:54:03.029Z,90.1
2022-09-20T02:57:02.957Z,90.1
2022-09-20T03:00:02.960Z,90.1
2022-09-20T03:03:02.881Z,90.1
2022-09-20T03:06:02.913Z,90.1
2022-09-20T03:09:02.911Z,90.1
2022-09-20T03:12:02.938Z,90.1
2022-09-20T03:15:02.964Z,90.1
2022-09-20T03:18:02.917Z,90.1
2022-09-20T03:21:02.967Z,90.1
2022-09-20T03:24:02.934Z,90.1
2022-09-20T03:27:02.923Z,90.1
2022-09-20T03:30:03.015Z,90.1
2022-09-20T03:33:02.928Z,90.1
2022-09-20T03:36:02.921Z,90.1
2022-09-20T03:39:03.100Z,90.1
2022-09-20T03:42:02.986Z,90.1
2022-09-20T03:45:02.934Z,90.1
2022-09-20T03:48:02.957Z,90.1
2022-09-20T03:51:02.931Z,90.1
2022-09-20T03:54:02.945Z,90.1
2022-09-20T03:57:02.909Z,90.1
2022-09-20T04:00:03.102Z,90.1
2022-09-20T04:03:02.915Z,90.1
2022-09-20T04:06:02.932Z,90.1
2022-09-20T04:09:02.942Z,90.1
2022-09-20T04:12:03.246Z,90.1
2022-09-20T04:15:02.931Z,90.1
2022-09-20T04:18:02.952Z,90.1
2022-09-20T04:21:02.904Z,90.6
2022-09-20T04:24:02.994Z,90.6
2022-09-20T04:27:02.975Z,90.6
2022-09-20T04:30:03.034Z,90.6
2022-09-20T04:33:02.934Z,90.6
2022-09-20T04:36:03.083Z,90.6
2022-09-20T04:39:02.951Z,90.6
2022-09-20T04:42:02.943Z,90.6
2022-09-20T04:45:02.996Z,90.9
2022-09-20T04:48:02.965Z,90.9
2022-09-20T04:51:02.966Z,90.9
2022-09-20T04:54:02.981Z,90.9
2022-09-20T04:57:02.906Z,90.9
2022-09-20T05:00:02.892Z,90.7
2022-09-20T05:03:02.953Z,90.7
2022-09-20T05:06:02.962Z,90.7
2022-09-20T05:09:03.279Z,90.7
2022-09-20T05:12:02.971Z,90.7
2022-09-20T05:15:03.000Z,90.7
2022-09-20T05:18:02.935Z,90.7
2022-09-20T05:21:03.278Z,90.7
2022-09-20T05:24:02.958Z,90.7
2022-09-20T05:27:03.000Z,90.7
2022-09-20T05:30:07.593Z,90.7
2022-09-20T05:33:03.067Z,91.5
2022-09-20T05:36:02.990Z,91.5
2022-09-20T05:39:06.143Z,91.5
2022-09-20T05:42:03.030Z,91.5
2022-09-20T05:45:02.990Z,91.8
2022-09-20T05:48:03.013Z,91.8
2022-09-20T05:51:06.310Z,91.8
2022-09-20T05:54:02.986Z,91.8
2022-09-20T05:57:02.973Z,91.8
2022-09-20T06:00:03.040Z,91.8
2022-09-20T06:03:02.976Z,91.8
2022-09-20T06:06:02.966Z,91.8
2022-09-20T06:09:02.966Z,91.8
2022-09-20T06:12:02.968Z,91.8
2022-09-20T06:15:02.959Z,91.9
2022-09-20T06:18:02.978Z,91.9
2022-09-20T06:21:02.949Z,91.9
2022-09-20T06:24:02.966Z,91.9
2022-09-20T06:27:02.936Z,91.9
2022-09-20T06:30:03.049Z,91.9
2022-09-20T06:33:02.944Z,91.9
2022-09-20T06:36:02.929Z,91.9
2022-09-20T06:39:03.021Z,91.9
2022-09-20T06:42:02.982Z,91.9
2022-09-20T06:45:03.025Z,91.9
2022-09-20T06:48:02.966Z,91.5
2022-09-20T06:51:02.939Z,91.5
2022-09-20T06:54:02.987Z,91.5
2022-09-20T06:57:02.962Z,91.5
2022-09-20T07:00:03.046Z,91.5
2022-09-20T07:03:02.934Z,91.5
2022-09-20T07:06:02.990Z,91.5
2022-09-20T07:09:03.001Z,91.5
2022-09-20T07:12:02.950Z,91.5
2022-09-20T07:15:03.008Z,91.5
2022-09-20T07:18:02.979Z,91.5
2022-09-20T07:21:02.930Z,91.5
2022-09-20T07:24:03.007Z,90.7
2022-09-20T07:27:02.985Z,90.7
2022-09-20T07:30:03.031Z,90.7
2022-09-20T07:33:02.921Z,90.7
2022-09-20T07:36:02.995Z,90.7
2022-09-20T07:39:03.045Z,90
2022-09-20T07:42:02.981Z,90
2022-09-20T07:45:02.935Z,90
2022-09-20T07:48:02.952Z,90
2022-09-20T07:51:05.686Z,90
2022-09-20T07:54:02.968Z,90
2022-09-20T07:57:02.900Z,90
2022-09-20T08:00:03.061Z,90
2022-09-20T08:03:02.973Z,90
2022-09-20T08:06:03.012Z,88.7
2022-09-20T08:09:02.973Z,88.7
2022-09-20T08:15:02.992Z,88.7
2022-09-20T08:18:03.051Z,88.7
2022-09-20T08:21:02.976Z,88.7
2022-09-20T08:24:02.982Z,88.7
2022-09-20T08:27:02.951Z,88.7
2022-09-20T08:30:03.020Z,88.7
2022-09-20T08:33:03.038Z,88.7
2022-09-20T08:36:02.979Z,86
2022-09-20T08:42:02.983Z,85.8
2022-09-20T08:45:03.231Z,85.8
2022-09-20T08:48:03.014Z,85.8
2022-09-20T08:51:08.249Z,85.8
2022-09-20T08:54:02.943Z,85.8
2022-09-20T08:57:02.947Z,85.8
2022-09-20T09:00:03.031Z,85.8
2022-09-20T09:03:02.964Z,85.8
2022-09-20T09:06:03.613Z,84.7
2022-09-20T09:09:03.007Z,84.7
2022-09-20T09:12:03.025Z,84.7
2022-09-20T09:15:02.965Z,84.7
2022-09-20T09:18:02.988Z,84.7
2022-09-20T09:21:02.967Z,84.7
2022-09-20T09:24:03.003Z,84.7
2022-09-20T09:27:02.953Z,84.7
2022-09-20T09:30:03.051Z,84.3
2022-09-20T09:33:02.922Z,83.8
2022-09-20T09:36:02.941Z,83.8
2022-09-20T09:39:03.026Z,83.8
2022-09-20T09:42:03.022Z,83.8
2022-09-20T09:45:02.983Z,83.8
2022-09-20T09:48:03.009Z,83.8
2022-09-20T09:51:02.968Z,83.8
2022-09-20T09:54:02.914Z,83.8
2022-09-20T09:57:02.973Z,83.8
2022-09-20T10:00:12.461Z,83.8
2022-09-20T10:03:02.936Z,83.8
2022-09-20T10:06:02.939Z,80.8
2022-09-20T10:09:02.977Z,80.8
2022-09-20T10:12:03.007Z,80.8
2022-09-20T10:15:02.957Z,80.8
2022-09-20T10:18:02.978Z,80.8
2022-09-20T10:21:02.937Z,80.8
2022-09-20T10:24:07.232Z,80.8
2022-09-20T10:27:03.114Z,80.8
2022-09-20T10:30:02.961Z,80.8
2022-09-20T10:33:02.906Z,80.8
2022-09-20T10:36:02.990Z,80.8
2022-09-20T10:39:02.959Z,80.8
2022-09-20T10:42:03.021Z,80.8
2022-09-20T10:45:02.989Z,80.8
2022-09-20T10:48:02.940Z,80.8
2022-09-20T10:51:02.929Z,80.8
2022-09-20T10:54:03.024Z,80.8
2022-09-20T10:57:03.005Z,80.8
2022-09-20T11:00:03.028Z,80.8
2022-09-20T11:03:03.023Z,80.8
2022-09-20T11:06:02.973Z,80.8
2022-09-20T11:09:02.981Z,80.8
2022-09-20T11:12:02.985Z,80.8
2022-09-20T11:15:02.939Z,80.8
2022-09-20T11:18:02.941Z,79.5
2022-09-20T11:21:03.035Z,78.2
2022-09-20T11:24:03.000Z,78.2
2022-09-20T11:27:03.014Z,78.2
2022-09-20T11:30:03.064Z,78.2
2022-09-20T11:33:02.976Z,78.2
2022-09-20T11:36:02.988Z,78.2
2022-09-20T11:39:03.003Z,78.2
2022-09-20T11:42:02.987Z,78.2
2022-09-20T11:45:03.042Z,73.3
2022-09-20T11:48:03.000Z,73.3
2022-09-20T11:51:02.987Z,73.3
2022-09-20T11:54:02.962Z,73.3
2022-09-20T11:57:02.939Z,73.3
2022-09-20T12:00:03.072Z,73.3
2022-09-20T12:03:03.473Z,73.3
2022-09-20T12:06:02.974Z,73.3
2022-09-20T12:09:03.023Z,73.3
2022-09-20T12:12:02.968Z,73.3
2022-09-20T12:15:02.956Z,73.3
2022-09-20T12:18:11.228Z,73.5
2022-09-20T12:21:02.992Z,73.5
2022-09-20T12:24:02.994Z,73.5
2022-09-20T12:27:02.995Z,73.5
2022-09-20T12:30:03.078Z,73.5
2022-09-20T12:33:03.042Z,73.5
2022-09-20T12:36:02.973Z,73.5
2022-09-20T12:39:02.990Z,73.5
2022-09-20T12:42:03.051Z,73.5
2022-09-20T12:45:03.015Z,73.5
2022-09-20T12:48:02.990Z,73.5
2022-09-20T12:51:02.950Z,66.8
2022-09-20T12:54:02.953Z,66.8
2022-09-20T12:57:02.943Z,66.8
2022-09-20T13:00:03.061Z,66.8
2022-09-20T13:03:02.933Z,66.8
2022-09-20T13:06:02.964Z,66.8
2022-09-20T13:09:03.946Z,66.8
2022-09-20T13:12:02.998Z,66.8
2022-09-20T13:15:02.951Z,67.7
2022-09-20T13:18:02.987Z,67.7
2022-09-20T13:21:02.902Z,67.7
2022-09-20T13:24:02.971Z,67.7
2022-09-20T13:27:02.946Z,67.7
2022-09-20T13:30:03.001Z,67.7
2022-09-20T13:33:02.961Z,67.7
2022-09-20T13:36:02.968Z,67.7
2022-09-20T13:39:02.980Z,67.7
2022-09-20T13:42:02.947Z,67.7
2022-09-20T13:45:02.949Z,67.7
2022-09-20T13:48:03.009Z,67.7
2022-09-20T13:51:02.928Z,67.7
2022-09-20T13:54:02.944Z,67.7
2022-09-20T13:57:02.933Z,67.7
2022-09-20T14:00:03.162Z,67.7
2022-09-20T14:03:02.964Z,67.7
2022-09-20T14:06:02.990Z,67.7
2022-09-20T14:09:05.056Z,67.6
2022-09-20T14:12:02.979Z,67.6
2022-09-20T14:15:02.972Z,67.6
2022-09-20T14:18:02.923Z,67.6
2022-09-20T14:21:02.973Z,67.6
2022-09-20T14:24:02.986Z,67.6
2022-09-20T14:27:02.929Z,67.6
2022-09-20T14:30:03.062Z,67.6
2022-09-20T14:33:03.009Z,67.6
2022-09-20T14:36:02.998Z,67.6
2022-09-20T14:39:02.987Z,67.6
2022-09-20T14:42:02.965Z,67.6
2022-09-20T14:45:02.957Z,67.6
2022-09-20T14:48:05.648Z,67.6
2022-09-20T14:51:03.032Z,67.6
2022-09-20T14:54:02.964Z,67.6
2022-09-20T14:57:02.962Z,67.6
2022-09-20T15:00:03.104Z,68
2022-09-20T15:03:02.964Z,67.6
2022-09-20T15:06:02.998Z,67.6
2022-09-20T15:09:02.972Z,67.6
2022-09-20T15:12:03.036Z,67.6
2022-09-20T15:15:03.031Z,67.6
2022-09-20T15:18:02.972Z,67.6
2022-09-20T15:21:02.987Z,67.6
2022-09-20T15:24:02.996Z,67.6
2022-09-20T15:27:02.972Z,67.6
2022-09-20T15:30:03.807Z,67.6
2022-09-20T15:33:05.571Z,67.6
2022-09-20T15:36:03.035Z,67.6
2022-09-20T15:39:02.993Z,67.6
2022-09-20T15:42:02.961Z,67.6
2022-09-20T15:45:02.977Z,67.1
2022-09-20T15:48:02.988Z,67.1
2022-09-20T15:51:02.969Z,67.1
2022-09-20T15:54:02.997Z,67.2
2022-09-20T15:57:02.957Z,67.2
2022-09-20T16:00:02.962Z,67.2
2022-09-20T16:03:02.955Z,67.2
2022-09-20T16:06:07.006Z,67.2
2022-09-20T16:09:02.985Z,67.2
2022-09-20T16:12:02.994Z,67.2
2022-09-20T16:15:02.992Z,67.2
2022-09-20T16:18:02.992Z,67.2
2022-09-20T16:21:02.944Z,67.2
2022-09-20T16:24:02.992Z,67.2
2022-09-20T16:27:02.978Z,67.2
2022-09-20T16:30:03.051Z,67.2
2022-09-20T16:33:03.071Z,67.2
2022-09-20T16:36:18.221Z,67.2
2022-09-20T16:39:02.944Z,67.2
2022-09-20T16:42:03.000Z,67.2
2022-09-20T16:45:02.985Z,67.2
2022-09-20T16:48:06.472Z,67.2
2022-09-20T16:51:02.910Z,72.5
2022-09-20T16:54:02.991Z,72.5
2022-09-20T16:57:03.045Z,72.5
2022-09-20T17:00:03.029Z,72.6
2022-09-20T17:03:03.002Z,72.6
2022-09-20T17:06:02.944Z,72.6
2022-09-20T17:09:02.966Z,72.6
2022-09-20T17:12:02.998Z,72.6
2022-09-20T17:15:02.962Z,72.6
2022-09-20T17:18:02.959Z,72.6
2022-09-20T17:21:02.959Z,72.6
2022-09-20T17:24:03.014Z,72.6
2022-09-20T17:27:02.994Z,74.2
2022-09-20T17:30:02.925Z,74.2
2022-09-20T17:33:02.890Z,74.2
2022-09-20T17:36:02.900Z,74.2
2022-09-20T17:39:06.933Z,74.2
2022-09-20T17:42:02.990Z,74.2
2022-09-20T17:45:02.913Z,74.2
2022-09-20T17:48:03.614Z,74.2
2022-09-20T17:51:02.920Z,75.3
2022-09-20T17:54:02.932Z,75.3
2022-09-20T17:57:02.891Z,75.3
2022-09-20T18:00:03.031Z,75.3
2022-09-20T18:03:07.353Z,75.3
2022-09-20T18:06:02.953Z,75.3
2022-09-20T18:09:02.916Z,75.3
2022-09-20T18:12:02.914Z,75.3
2022-09-20T18:15:02.895Z,75.3
2022-09-20T18:18:02.947Z,75.3
2022-09-20T18:21:02.912Z,75.3
2022-09-20T18:24:02.923Z,75.3
2022-09-20T18:27:03.353Z,76.1
2022-09-20T18:30:03.007Z,76.1
2022-09-20T18:33:02.864Z,76.1
2022-09-20T18:36:02.942Z,76.1
2022-09-20T18:39:02.956Z,76.1
2022-09-20T18:42:02.947Z,76.3
2022-09-20T18:45:02.969Z,76.3
2022-09-20T18:48:02.864Z,76.3
2022-09-20T18:51:02.918Z,76.3
2022-09-20T18:54:02.956Z,76.3
2022-09-20T18:57:02.930Z,76.3
2022-09-20T19:00:06.549Z,76.3
2022-09-20T19:03:05.731Z,76.3
2022-09-20T19:06:02.897Z,76.3
2022-09-20T19:09:02.932Z,76.3
2022-09-20T19:12:02.925Z,75.9
2022-09-20T19:15:02.973Z,75.9
2022-09-20T19:18:03.018Z,75.9
2022-09-20T19:21:03.002Z,75.9
2022-09-20T19:24:05.891Z,75.9
2022-09-20T19:27:02.931Z,75.9
2022-09-20T19:30:02.919Z,76.3
2022-09-20T19:33:02.931Z,76.3
2022-09-20T19:36:02.908Z,76.3
2022-09-20T19:39:02.944Z,76.5
2022-09-20T19:42:02.922Z,76.5
2022-09-20T19:45:02.922Z,76.5
2022-09-20T19:48:02.951Z,76.5
2022-09-20T19:51:02.886Z,77.1
2022-09-20T19:54:02.965Z,77.1
2022-09-20T19:57:02.869Z,77.1
2022-09-20T20:00:06.248Z,77.1
2022-09-20T20:03:03.027Z,77.1
2022-09-20T20:06:10.296Z,77.1
2022-09-20T20:09:02.906Z,77.1
2022-09-20T20:12:02.950Z,77.1
2022-09-20T20:15:02.880Z,77.1
2022-09-20T20:18:02.965Z,77.1
2022-09-20T20:21:02.897Z,77.1
2022-09-20T20:24:02.981Z,78.3
2022-09-20T20:27:02.851Z,78.3
2022-09-20T20:30:03.018Z,78.3
2022-09-20T20:33:02.941Z,78.3
2022-09-20T20:36:02.919Z,78.3
2022-09-20T20:39:02.909Z,78.2
2022-09-20T20:42:04.835Z,78.2
2022-09-20T20:45:02.997Z,78.2
2022-09-20T20:48:02.901Z,78.3
2022-09-20T20:51:02.887Z,78.3
2022-09-20T20:54:02.949Z,78.3
2022-09-20T20:57:02.933Z,78.3
2022-09-20T21:00:03.012Z,78.3
2022-09-20T21:03:03.114Z,78.3
2022-09-20T21:06:02.959Z,78.3
2022-09-20T21:09:02.873Z,78.3
2022-09-20T21:12:02.887Z,78.3
2022-09-20T21:15:02.982Z,78.3
2022-09-20T21:18:02.925Z,78.3
2022-09-20T21:21:02.929Z,79.5
2022-09-20T21:24:02.908Z,79.5
2022-09-20T21:27:02.900Z,79.5
2022-09-20T21:30:02.907Z,79.5
2022-09-20T21:33:02.915Z,80.2
2022-09-20T21:36:02.927Z,80.2
2022-09-20T21:39:02.887Z,80.2
2022-09-20T21:42:02.914Z,80.2
2022-09-20T21:45:02.999Z,80.2
2022-09-20T21:48:02.915Z,80.2
2022-09-20T21:51:02.910Z,80.2
2022-09-20T21:54:02.918Z,80.2
2022-09-20T21:57:02.914Z,80.2
2022-09-20T22:00:03.083Z,80.6
2022-09-20T22:03:02.938Z,80.6
2022-09-20T22:06:02.900Z,80.6
2022-09-20T22:09:02.912Z,80.6
2022-09-20T22:12:02.925Z,80.6
2022-09-20T22:15:02.902Z,80.6
2022-09-20T22:18:02.950Z,80.6
2022-09-20T22:21:02.901Z,80.6
2022-09-20T22:24:02.967Z,80.6
2022-09-20T22:27:02.899Z,80.6
2022-09-20T22:30:07.462Z,80.6
2022-09-20T22:33:02.902Z,80.6
2022-09-20T22:36:02.948Z,80.6
2022-09-20T22:39:02.938Z,80.6
2022-09-20T22:42:02.905Z,80.6
2022-09-20T22:45:02.915Z,80.6
2022-09-20T22:48:02.896Z,80.6
2022-09-20T22:51:02.922Z,80.6
2022-09-20T22:54:02.991Z,80.6
2022-09-20T22:57:02.870Z,80.6
2022-09-20T23:00:03.058Z,80.6
2022-09-20T23:03:02.935Z,80.6
2022-09-20T23:06:02.868Z,80.6
2022-09-20T23:09:02.960Z,80.6
2022-09-20T23:12:02.918Z,80.6
2022-09-20T23:15:02.955Z,80.6
2022-09-20T23:18:02.964Z,80.4
2022-09-20T23:21:02.943Z,80.4
2022-09-20T23:24:02.865Z,80.4
2022-09-20T23:27:02.883Z,80.4
2022-09-20T23:30:02.920Z,80.4
2022-09-20T23:33:03.206Z,80.4
2022-09-20T23:36:02.953Z,80.4
2022-09-20T23:39:02.954Z,80.4
2022-09-20T23:42:02.892Z,80.4
2022-09-20T23:45:02.961Z,80.4
2022-09-20T23:48:02.930Z,80.4
2022-09-20T23:51:02.920Z,80.4
2022-09-20T23:54:02.912Z,80.4
2022-09-20T23:57:02.870Z,80.4
